Beef Island, British Virgin Islands

6:26 PM AST on August 28, 2016 (GMT -0400)
Beef I International | | Change Station

Elev 13 ft 18.44 °N, 64.54 °W | Updated 26 minutes ago

Mostly Cloudy
Mostly Cloudy
81 °F
Feels Like 87 °F
N
6
Wind Variable Wind from ESE

Today
High -- | Low -- °F
--% Chance of Precip.
Yesterday
High -- | Low -- °F
Precip. -- in
Pressure 29.95 in
Visibility 6.2 miles
Clouds Scattered Clouds 1700 ft
Scattered Clouds 3800 ft
Mostly Cloudy 6500 ft
Heat Index 87 °F
Dew Point 77 °F
Humidity 89%
Rainfall 0.00 in
Snow Depth Not available.
6:02 AM 6:35 PM
Waning Crescent, 13% visible
METAR TUPJ 282200Z 11005KT 9999 SCT017 SCT038 BKN065 27/25 Q1014 RMK A2995
Pressure 29.95 in
Visibility 6.2 miles
Clouds Scattered Clouds 1700 ft
Scattered Clouds 3800 ft
Mostly Cloudy 6500 ft
Heat Index 87 °F
Dew Point 77 °F
Humidity 89%
Rainfall 0.00 in
Snow Depth Not available.
6:02 AM 6:35 PM
Waning Crescent, 13% visible
METAR TUPJ 282200Z 11005KT 9999 SCT017 SCT038 BKN065 27/25 Q1014 RMK A2995

10-Day Weather Forecast

Almanac

Astronomy

Aug. 28, 2016 Rise Set
Actual Time
Civil Twilight
Nautical Twilight
Astronomical Twilight
Moon
Length of Visible Light
Length of Day
Tomorrow will be .
, % of the Moon is Illuminated

Today's Extremes

Country Highs Country Lows

Community

WunderPhotos

Upload Photos

1,935,705 photos uploaded!

WunderBlog® & News

Nearby

Air Quality

  Air Quality AQ Index Pollutant
Not available.

Snow Depth

Station Depth Elevation

Earthquake Activity

City Distance Mag. Time & Date
Minimum magnitude displayed is 2.5.

Coastal Water Temperatures

Place Temperature

Stations

Nearby Weather Stations

Station Location Temp. Windchill Dew Point Humidity Wind Precip. Elev Updated Type